Time;durP1;ratioP1;P1;durP2;ratioP2;P2;SDS_P1;SDS_P2;PMS_P1;PMS_P2;Temp;Humidity;BMP_temperature;BMP_pressure;BME280_temperature;BME280_humidity;BME280_pressure;Samples;Min_cycle;Max_cycle;Signal;HPM_P1;HPM_P2
2021/12/10 00:01:26;;;;;;;18.25;8.40;;;;;;;;;;5052014;28;20024;-85
2021/12/10 00:03:54;;;;;;;13.32;7.68;;;;;;;;;;5025995;28;20049;-81
2021/12/10 00:06:30;;;;;;;16.17;8.18;;;;;;;;;;5035059;28;20035;-81
2021/12/10 00:09:01;;;;;;;16.30;8.05;;;;;;;;;;5034734;28;20025;-87
2021/12/10 00:11:54;;;;;;;16.05;8.10;;;;;;;;;;5041985;28;20032;-81
2021/12/10 00:14:24;;;;;;;17.70;8.63;;;;;;;;;;5026009;28;20822;-85
2021/12/10 00:16:49;;;;;;;16.27;7.97;;;;;;;;;;5038044;28;20275;-84
2021/12/10 00:21:43;;;;;;;18.67;8.95;;;;;;;;;;5058717;28;20027;-80
2021/12/10 00:24:10;;;;;;;15.18;7.65;;;;;;;;;;5029061;28;20025;-80
2021/12/10 00:26:36;;;;;;;16.15;7.88;;;;;;;;;;5025959;28;20053;-80
2021/12/10 00:29:05;;;;;;;15.90;8.90;;;;;;;;;;5020697;28;20104;-80
2021/12/10 00:31:47;;;;;;;19.40;9.07;;;;;;;;;;5025843;28;20468;-80
2021/12/10 00:34:19;;;;;;;17.17;8.70;;;;;;;;;;5026226;28;20115;-80
2021/12/10 00:36:46;;;;;;;17.35;8.57;;;;;;;;;;5029019;28;20599;-81
2021/12/10 00:39:15;;;;;;;21.08;8.50;;;;;;;;;;5035981;28;20024;-86
2021/12/10 00:41:41;;;;;;;17.52;9.00;;;;;;;;;;5041964;28;20108;-88
2021/12/10 00:44:06;;;;;;;17.65;8.27;;;;;;;;;;5028902;28;20104;-80
2021/12/10 00:46:32;;;;;;;16.90;8.82;;;;;;;;;;5047410;28;20037;-84
2021/12/10 00:48:58;;;;;;;20.88;8.90;;;;;;;;;;5054300;28;20086;-80
2021/12/10 00:51:24;;;;;;;15.38;8.20;;;;;;;;;;5041797;28;20025;-80
2021/12/10 00:53:49;;;;;;;15.73;8.07;;;;;;;;;;5028673;28;20370;-83
2021/12/10 00:56:15;;;;;;;18.52;8.57;;;;;;;;;;5029751;28;20029;-85
2021/12/10 00:58:41;;;;;;;18.85;8.10;;;;;;;;;;5024698;28;20035;-80
2021/12/10 01:01:15;;;;;;;16.10;8.10;;;;;;;;;;5044973;28;20071;-84
2021/12/10 01:03:49;;;;;;;15.55;7.85;;;;;;;;;;5041275;28;20033;-86
2021/12/10 01:06:17;;;;;;;13.75;7.90;;;;;;;;;;5027774;28;20029;-85
2021/12/10 01:08:46;;;;;;;16.65;8.32;;;;;;;;;;5024117;28;20111;-87
2021/12/10 01:11:33;;;;;;;13.45;7.15;;;;;;;;;;5045580;28;20033;-85
2021/12/10 01:14:13;;;;;;;11.35;6.15;;;;;;;;;;5034944;28;20424;-80
2021/12/10 01:27:33;;;;;;;14.40;6.82;;;;;;;;;;5056173;28;20123;-81
2021/12/10 01:30:23;;;;;;;13.23;6.55;;;;;;;;;;5038999;28;20511;-80
2021/12/10 01:33:16;;;;;;;14.32;7.40;;;;;;;;;;5046549;28;20108;-80
2021/12/10 01:35:43;;;;;;;;;;;;;;;;;;5028022;28;20116;-81
2021/12/10 01:38:11;;;;;;;15.00;6.82;;;;;;;;;;5036351;28;19931;-85
2021/12/10 01:40:40;;;;;;;15.15;7.00;;;;;;;;;;5047529;28;20031;-80
2021/12/10 01:43:11;;;;;;;14.18;7.05;;;;;;;;;;5038998;28;20025;-84
2021/12/10 01:45:47;;;;;;;16.75;7.55;;;;;;;;;;5044881;28;20033;-85
2021/12/10 01:48:26;;;;;;;16.23;6.50;;;;;;;;;;5019045;28;20031;-80
2021/12/10 01:50:52;;;;;;;13.82;7.10;;;;;;;;;;5037068;28;20434;-84
2021/12/10 01:53:22;;;;;;;15.40;6.75;;;;;;;;;;5023537;28;20033;-85
2021/12/10 01:55:50;;;;;;;13.75;6.70;;;;;;;;;;5041019;28;20029;-80
2021/12/10 01:58:20;;;;;;;12.60;6.00;;;;;;;;;;5039124;28;20028;-86
2021/12/10 02:00:51;;;;;;;13.63;5.75;;;;;;;;;;5023030;28;20024;-81
2021/12/10 02:03:18;;;;;;;11.98;6.38;;;;;;;;;;5035624;28;20033;-85
2021/12/10 02:05:44;;;;;;;12.75;5.80;;;;;;;;;;5022349;28;20080;-86
2021/12/10 02:08:09;;;;;;;11.73;5.43;;;;;;;;;;5033824;28;20752;-86
2021/12/10 02:10:35;;;;;;;14.18;5.30;;;;;;;;;;5040424;28;20028;-87
2021/12/10 02:13:01;;;;;;;11.43;4.82;;;;;;;;;;5028283;28;20676;-80
2021/12/10 02:15:28;;;;;;;13.05;5.20;;;;;;;;;;5045591;28;20045;-80
2021/12/10 02:17:57;;;;;;;12.82;4.95;;;;;;;;;;5045897;28;20029;-80
2021/12/10 02:20:27;;;;;;;13.52;5.55;;;;;;;;;;5024995;28;20017;-80
2021/12/10 02:22:53;;;;;;;11.38;5.05;;;;;;;;;;5022547;28;20032;-81
2021/12/10 02:25:22;;;;;;;12.23;5.30;;;;;;;;;;5024929;28;20048;-81
2021/12/10 02:27:48;;;;;;;12.70;4.78;;;;;;;;;;5030495;28;20032;-80
2021/12/10 02:30:15;;;;;;;11.32;5.50;;;;;;;;;;5032577;28;20036;-85
2021/12/10 02:32:40;;;;;;;8.55;4.13;;;;;;;;;;5020504;28;20036;-87
2021/12/10 02:35:11;;;;;;;9.63;4.50;;;;;;;;;;5024555;28;20036;-83
2021/12/10 02:37:38;;;;;;;9.75;4.47;;;;;;;;;;5040839;28;20033;-84
2021/12/10 02:40:04;;;;;;;9.80;4.50;;;;;;;;;;5032849;28;20044;-80
2021/12/10 02:42:30;;;;;;;9.55;4.60;;;;;;;;;;5030060;28;20029;-84
2021/12/10 02:44:56;;;;;;;9.00;4.55;;;;;;;;;;5042443;28;20040;-80
2021/12/10 02:47:22;;;;;;;9.02;4.53;;;;;;;;;;5035058;28;20029;-81
2021/12/10 02:49:47;;;;;;;8.73;4.38;;;;;;;;;;5027864;28;20036;-84
2021/12/10 02:52:15;;;;;;;8.30;3.80;;;;;;;;;;5045612;28;20540;-84
2021/12/10 02:54:42;;;;;;;7.95;3.88;;;;;;;;;;5025971;28;20064;-80
2021/12/10 02:57:12;;;;;;;11.90;3.95;;;;;;;;;;5026714;28;20060;-80
2021/12/10 02:59:39;;;;;;;7.50;3.92;;;;;;;;;;5034222;28;20047;-85
2021/12/10 03:02:07;;;;;;;7.95;3.80;;;;;;;;;;5039999;28;20017;-87
2021/12/10 03:04:33;;;;;;;7.22;3.35;;;;;;;;;;5027514;28;20029;-86
2021/12/10 03:07:00;;;;;;;7.70;3.20;;;;;;;;;;5029836;28;20086;-81
2021/12/10 03:09:27;;;;;;;9.60;3.20;;;;;;;;;;5028711;28;20025;-80
2021/12/10 03:11:56;;;;;;;7.28;2.80;;;;;;;;;;5014722;28;20048;-80
2021/12/10 03:14:24;;;;;;;5.43;2.55;;;;;;;;;;5045192;28;20048;-84
2021/12/10 03:16:52;;;;;;;6.28;2.85;;;;;;;;;;5059641;28;20498;-79
2021/12/10 03:19:19;;;;;;;6.88;3.05;;;;;;;;;;5027929;28;20107;-86
2021/12/10 03:21:45;;;;;;;5.97;3.03;;;;;;;;;;5031381;28;20036;-80
2021/12/10 03:24:15;;;;;;;8.82;2.85;;;;;;;;;;5032060;28;20037;-85
2021/12/10 03:26:41;;;;;;;7.57;2.63;;;;;;;;;;5023996;28;20029;-81
2021/12/10 03:29:07;;;;;;;8.30;3.15;;;;;;;;;;5029866;28;20064;-84
2021/12/10 03:31:34;;;;;;;6.32;3.40;;;;;;;;;;5033162;28;20171;-85
2021/12/10 03:33:59;;;;;;;6.00;3.03;;;;;;;;;;5028579;28;20148;-80
2021/12/10 03:36:26;;;;;;;9.00;3.78;;;;;;;;;;5027054;28;20513;-85
2021/12/10 03:38:52;;;;;;;9.18;3.70;;;;;;;;;;5022707;28;20028;-85
2021/12/10 03:41:18;;;;;;;8.25;3.67;;;;;;;;;;5047116;28;20024;-82
2021/12/10 03:43:47;;;;;;;9.25;3.60;;;;;;;;;;5036802;28;20029;-87
2021/12/10 03:46:13;;;;;;;7.95;3.50;;;;;;;;;;5022425;28;20025;-80
2021/12/10 03:48:42;;;;;;;6.60;2.92;;;;;;;;;;5034578;28;20086;-79
2021/12/10 03:51:11;;;;;;;9.23;3.30;;;;;;;;;;5040312;28;20027;-80
2021/12/10 03:53:37;;;;;;;6.88;2.92;;;;;;;;;;5045301;28;20520;-87
2021/12/10 03:56:08;;;;;;;6.38;2.92;;;;;;;;;;5054235;28;20029;-80
2021/12/10 03:58:34;;;;;;;9.45;2.90;;;;;;;;;;5046847;28;20040;-80
2021/12/10 04:01:01;;;;;;;11.13;3.15;;;;;;;;;;5038363;28;20032;-84
2021/12/10 04:03:29;;;;;;;8.23;2.90;;;;;;;;;;5023214;28;20078;-80
2021/12/10 04:05:55;;;;;;;7.15;3.03;;;;;;;;;;5030993;28;20025;-87
2021/12/10 04:08:22;;;;;;;7.15;2.80;;;;;;;;;;5025568;28;21446;-85
2021/12/10 04:10:49;;;;;;;7.03;3.10;;;;;;;;;;5032846;28;21339;-80
2021/12/10 04:13:15;;;;;;;6.55;3.00;;;;;;;;;;5029927;28;20025;-80
2021/12/10 04:15:41;;;;;;;6.35;2.47;;;;;;;;;;5031411;28;20060;-79
2021/12/10 04:18:08;;;;;;;9.15;3.05;;;;;;;;;;5034055;28;20400;-80
2021/12/10 04:20:35;;;;;;;7.05;2.67;;;;;;;;;;5030217;28;20108;-81
2021/12/10 04:23:04;;;;;;;6.35;2.67;;;;;;;;;;5021944;28;20037;-84
2021/12/10 04:25:30;;;;;;;5.60;2.65;;;;;;;;;;5030632;28;20098;-86
2021/12/10 04:27:59;;;;;;;4.97;2.58;;;;;;;;;;5029020;28;20494;-85
2021/12/10 04:30:26;;;;;;;9.75;2.92;;;;;;;;;;5031833;28;20422;-81
2021/12/10 04:32:51;;;;;;;5.65;2.40;;;;;;;;;;5021155;28;20103;-80
2021/12/10 04:35:20;;;;;;;6.80;2.47;;;;;;;;;;5028543;28;20052;-84
2021/12/10 04:37:49;;;;;;;7.65;2.58;;;;;;;;;;5033340;28;20059;-84
2021/12/10 04:40:17;;;;;;;10.80;2.72;;;;;;;;;;5047001;28;20029;-86
2021/12/10 04:42:43;;;;;;;5.07;2.33;;;;;;;;;;5027340;28;20088;-84
2021/12/10 04:45:10;;;;;;;4.07;2.35;;;;;;;;;;5024659;28;20064;-80
2021/12/10 04:47:35;;;;;;;7.10;2.40;;;;;;;;;;5029548;28;20029;-80
2021/12/10 04:50:04;;;;;;;7.07;2.53;;;;;;;;;;5042330;28;20026;-80
2021/12/10 04:52:30;;;;;;;6.03;2.35;;;;;;;;;;5025122;28;20029;-86
2021/12/10 04:54:55;;;;;;;5.30;2.28;;;;;;;;;;5029669;28;20039;-80
2021/12/10 04:57:21;;;;;;;9.40;2.45;;;;;;;;;;5044694;28;20056;-80
2021/12/10 04:59:46;;;;;;;6.57;2.50;;;;;;;;;;5024811;28;20025;-80
2021/12/10 05:02:15;;;;;;;6.72;2.40;;;;;;;;;;5028142;28;20116;-80
2021/12/10 05:04:43;;;;;;;5.68;2.00;;;;;;;;;;5027085;28;20069;-87
2021/12/10 05:07:10;;;;;;;8.93;2.60;;;;;;;;;;5029278;28;20024;-84
2021/12/10 05:09:37;;;;;;;6.15;2.80;;;;;;;;;;5048124;28;20392;-86
2021/12/10 05:12:03;;;;;;;8.30;2.30;;;;;;;;;;5027941;28;20025;-84
2021/12/10 05:14:31;;;;;;;9.13;2.53;;;;;;;;;;5043155;28;20060;-84
2021/12/10 05:17:00;;;;;;;5.55;2.10;;;;;;;;;;5042415;28;20025;-85
2021/12/10 05:19:27;;;;;;;6.55;2.53;;;;;;;;;;5024889;28;20392;-80
2021/12/10 05:21:53;;;;;;;5.10;1.98;;;;;;;;;;5026816;28;20060;-85
2021/12/10 05:24:19;;;;;;;7.03;1.98;;;;;;;;;;5050775;28;20070;-84
2021/12/10 05:26:45;;;;;;;7.80;2.42;;;;;;;;;;5043817;28;20436;-80
2021/12/10 05:29:11;;;;;;;10.02;2.08;;;;;;;;;;5026029;28;20488;-80
2021/12/10 05:31:40;;;;;;;8.13;2.92;;;;;;;;;;5024578;28;20436;-81
2021/12/10 05:34:06;;;;;;;5.63;2.05;;;;;;;;;;5031195;28;20033;-84
2021/12/10 05:36:32;;;;;;;11.18;2.30;;;;;;;;;;5022063;28;20036;-85
2021/12/10 05:38:58;;;;;;;5.35;2.08;;;;;;;;;;5030098;28;20520;-86
2021/12/10 05:41:23;;;;;;;5.55;1.73;;;;;;;;;;5027444;28;20018;-79
2021/12/10 05:43:49;;;;;;;6.00;1.90;;;;;;;;;;5044516;28;20029;-86
2021/12/10 05:46:16;;;;;;;8.43;1.80;;;;;;;;;;5030782;28;20040;-80
2021/12/10 05:48:42;;;;;;;7.47;1.95;;;;;;;;;;5043585;28;20380;-85
2021/12/10 05:51:08;;;;;;;8.23;2.00;;;;;;;;;;5037872;28;20054;-82
2021/12/10 05:53:34;;;;;;;4.53;1.70;;;;;;;;;;5035308;28;20037;-80
2021/12/10 05:55:59;;;;;;;7.45;2.05;;;;;;;;;;5049785;28;20774;-80
2021/12/10 05:58:25;;;;;;;8.75;2.05;;;;;;;;;;5034974;28;20028;-79
2021/12/10 06:01:00;;;;;;;6.75;2.08;;;;;;;;;;5025683;28;20025;-85
2021/12/10 06:03:26;;;;;;;4.50;1.70;;;;;;;;;;5027401;28;20158;-80
2021/12/10 06:05:52;;;;;;;4.28;1.73;;;;;;;;;;5029795;28;20057;-80
2021/12/10 06:08:18;;;;;;;8.98;1.90;;;;;;;;;;5025742;28;20516;-80
2021/12/10 06:10:45;;;;;;;8.45;2.17;;;;;;;;;;5028181;28;20412;-87
2021/12/10 06:13:11;;;;;;;9.38;2.70;;;;;;;;;;5027025;28;20034;-85
2021/12/10 06:15:37;;;;;;;7.90;2.47;;;;;;;;;;5036978;28;20049;-80
2021/12/10 06:18:03;;;;;;;7.40;2.17;;;;;;;;;;5033230;28;20037;-79
2021/12/10 06:20:33;;;;;;;9.40;2.20;;;;;;;;;;5045517;28;20025;-84
2021/12/10 06:22:59;;;;;;;5.25;1.70;;;;;;;;;;5041081;28;20033;-85
2021/12/10 06:25:29;;;;;;;6.05;1.75;;;;;;;;;;5037876;28;20029;-85
2021/12/10 06:27:54;;;;;;;7.72;1.75;;;;;;;;;;5048436;28;20036;-86
2021/12/10 06:30:24;;;;;;;4.90;2.10;;;;;;;;;;5036253;28;20033;-80
2021/12/10 06:32:51;;;;;;;10.80;2.13;;;;;;;;;;5022167;28;20468;-80
2021/12/10 06:35:18;;;;;;;6.60;1.60;;;;;;;;;;5028188;28;20017;-80
2021/12/10 06:37:44;;;;;;;6.78;2.03;;;;;;;;;;5048745;28;20028;-84
2021/12/10 06:40:13;;;;;;;5.72;1.67;;;;;;;;;;5029584;28;20044;-79
2021/12/10 06:42:39;;;;;;;6.55;2.00;;;;;;;;;;5036439;28;20017;-80
2021/12/10 06:45:08;;;;;;;7.68;2.25;;;;;;;;;;5045194;28;20040;-85
2021/12/10 06:47:33;;;;;;;7.72;2.40;;;;;;;;;;5028931;28;20025;-84
2021/12/10 06:49:59;;;;;;;11.75;2.72;;;;;;;;;;5033150;28;20478;-85
2021/12/10 06:52:24;;;;;;;5.80;2.05;;;;;;;;;;5029732;28;20037;-85
2021/12/10 06:54:50;;;;;;;8.77;2.47;;;;;;;;;;5028071;28;20484;-86
2021/12/10 06:57:15;;;;;;;10.60;2.20;;;;;;;;;;5025524;28;20044;-80
2021/12/10 06:59:41;;;;;;;7.90;2.42;;;;;;;;;;5029630;28;20044;-84
2021/12/10 07:02:06;;;;;;;5.50;1.83;;;;;;;;;;5028940;28;20052;-81
2021/12/10 07:04:32;;;;;;;7.68;2.00;;;;;;;;;;5017781;28;20429;-85
2021/12/10 07:06:57;;;;;;;5.20;1.70;;;;;;;;;;5034666;28;20036;-80
2021/12/10 07:09:24;;;;;;;9.10;2.17;;;;;;;;;;5029200;28;20060;-86
2021/12/10 07:11:53;;;;;;;5.80;1.83;;;;;;;;;;5020997;28;20034;-86
2021/12/10 07:14:18;;;;;;;7.38;1.90;;;;;;;;;;5032948;28;20045;-85
2021/12/10 07:16:46;;;;;;;7.32;1.95;;;;;;;;;;5037125;28;20370;-82
2021/12/10 07:19:14;;;;;;;6.97;2.10;;;;;;;;;;5027079;28;20029;-81
2021/12/10 07:21:40;;;;;;;6.93;2.08;;;;;;;;;;5025935;28;20021;-81
2021/12/10 07:24:09;;;;;;;11.02;2.53;;;;;;;;;;5027545;28;20033;-81
2021/12/10 07:26:36;;;;;;;8.45;2.20;;;;;;;;;;5038874;28;20074;-84
2021/12/10 07:29:03;;;;;;;7.60;2.05;;;;;;;;;;5027003;28;20036;-89
2021/12/10 07:31:29;;;;;;;8.90;2.00;;;;;;;;;;5031926;28;20032;-91
2021/12/10 07:33:54;;;;;;;6.70;2.22;;;;;;;;;;5045750;28;20067;-85
2021/12/10 07:36:25;;;;;;;4.82;2.00;;;;;;;;;;5054456;28;20436;-85
2021/12/10 07:38:51;;;;;;;6.60;2.28;;;;;;;;;;5035044;28;20469;-87
2021/12/10 07:41:18;;;;;;;7.57;2.65;;;;;;;;;;5051114;28;20096;-81
2021/12/10 07:43:43;;;;;;;6.97;2.00;;;;;;;;;;5033836;28;20056;-86
2021/12/10 07:46:14;;;;;;;8.20;2.20;;;;;;;;;;5036964;28;20399;-88
2021/12/10 07:48:42;;;;;;;6.93;1.83;;;;;;;;;;5031098;28;20484;-85
2021/12/10 07:51:20;;;;;;;7.80;2.08;;;;;;;;;;5043123;28;20036;-89
2021/12/10 07:53:55;;;;;;;7.60;2.25;;;;;;;;;;5034979;28;20392;-87
2021/12/10 07:56:25;;;;;;;11.75;2.50;;;;;;;;;;5018000;28;20503;-83
2021/12/10 07:58:50;;;;;;;5.93;1.98;;;;;;;;;;5023726;28;20495;-81
2021/12/10 08:01:25;;;;;;;6.95;1.90;;;;;;;;;;5034618;28;20022;-85
2021/12/10 08:03:53;;;;;;;8.13;2.30;;;;;;;;;;5034495;28;20069;-90
2021/12/10 08:06:32;;;;;;;8.57;2.50;;;;;;;;;;5032171;28;20112;-92
2021/12/10 08:08:58;;;;;;;6.95;2.13;;;;;;;;;;5030962;28;20025;-80
2021/12/10 08:11:25;;;;;;;5.35;2.05;;;;;;;;;;5044687;28;20028;-84
2021/12/10 08:13:50;;;;;;;6.97;2.42;;;;;;;;;;5030370;28;20033;-83
2021/12/10 08:16:17;;;;;;;10.88;2.60;;;;;;;;;;5044889;28;20063;-92
2021/12/10 08:18:43;;;;;;;10.23;2.75;;;;;;;;;;5043399;28;20041;-93
2021/12/10 08:21:09;;;;;;;4.80;2.20;;;;;;;;;;5032049;28;20021;-80
2021/12/10 08:23:36;;;;;;;5.80;2.50;;;;;;;;;;5030304;28;20123;-91
2021/12/10 08:26:02;;;;;;;11.10;3.17;;;;;;;;;;5037752;28;20029;-80
2021/12/10 08:28:28;;;;;;;6.25;2.45;;;;;;;;;;5060105;28;20043;-85
2021/12/10 08:30:55;;;;;;;7.13;2.72;;;;;;;;;;5031892;28;20021;-89
2021/12/10 08:33:23;;;;;;;6.68;2.53;;;;;;;;;;5032669;28;20398;-89
2021/12/10 08:35:55;;;;;;;7.30;2.40;;;;;;;;;;5042541;28;20696;-81
2021/12/10 08:38:20;;;;;;;11.48;3.15;;;;;;;;;;5027732;28;20079;-82
2021/12/10 08:40:56;;;;;;;4.90;2.63;;;;;;;;;;5040188;28;20032;-83
2021/12/10 08:43:23;;;;;;;7.45;2.80;;;;;;;;;;5057528;28;20023;-82
2021/12/10 08:45:52;;;;;;;10.75;3.38;;;;;;;;;;5033577;28;20032;-84
2021/12/10 08:48:19;;;;;;;6.07;2.80;;;;;;;;;;5034672;28;20587;-88
2021/12/10 08:50:55;;;;;;;8.65;3.10;;;;;;;;;;5029402;28;20039;-87
2021/12/10 08:53:21;;;;;;;9.15;3.13;;;;;;;;;;5037918;28;20119;-86
2021/12/10 08:55:50;;;;;;;8.75;3.88;;;;;;;;;;5029399;28;20021;-87
2021/12/10 08:58:21;;;;;;;7.47;3.20;;;;;;;;;;5031840;28;20035;-90
2021/12/10 09:01:20;;;;;;;7.35;4.03;;;;;;;;;;5047077;28;20060;-88
2021/12/10 09:03:50;;;;;;;10.38;3.53;;;;;;;;;;5024962;28;20061;-87
2021/12/10 09:06:18;;;;;;;8.57;3.25;;;;;;;;;;5038895;28;20469;-86
2021/12/10 09:08:44;;;;;;;8.73;3.17;;;;;;;;;;5026708;28;20035;-86
2021/12/10 09:11:10;;;;;;;10.48;4.13;;;;;;;;;;5053600;28;20040;-84
2021/12/10 09:13:36;;;;;;;9.57;3.95;;;;;;;;;;5044027;28;20020;-83
2021/12/10 09:16:05;;;;;;;9.77;3.53;;;;;;;;;;5052877;28;20052;-82
2021/12/10 09:18:33;;;;;;;9.73;3.80;;;;;;;;;;5042451;28;20124;-83
2021/12/10 09:21:01;;;;;;;6.78;3.08;;;;;;;;;;5040106;28;20108;-86
2021/12/10 09:23:28;;;;;;;8.82;3.80;;;;;;;;;;5037333;28;20048;-86
2021/12/10 09:26:00;;;;;;;9.93;3.55;;;;;;;;;;5034297;28;20098;-88
2021/12/10 09:28:26;;;;;;;7.90;3.30;;;;;;;;;;5017094;28;20033;-86
2021/12/10 09:30:54;;;;;;;6.38;3.38;;;;;;;;;;5035649;28;20409;-88
2021/12/10 09:33:21;;;;;;;9.40;3.53;;;;;;;;;;5051223;28;20113;-85
2021/12/10 09:35:47;;;;;;;7.80;2.97;;;;;;;;;;5031634;28;20033;-89
2021/12/10 09:38:13;;;;;;;10.00;3.33;;;;;;;;;;5036779;28;20025;-84
2021/12/10 09:40:42;;;;;;;8.85;3.40;;;;;;;;;;5035204;28;20085;-87
2021/12/10 09:43:18;;;;;;;10.85;3.30;;;;;;;;;;5052516;28;20021;-89
2021/12/10 09:45:45;;;;;;;5.68;3.03;;;;;;;;;;5026831;28;20032;-87
2021/12/10 09:48:13;;;;;;;8.98;3.00;;;;;;;;;;5030549;28;20124;-89
2021/12/10 09:50:48;;;;;;;10.80;3.47;;;;;;;;;;5035585;28;20040;-83
2021/12/10 09:53:15;;;;;;;11.57;3.28;;;;;;;;;;5064205;28;20035;-84
2021/12/10 09:55:42;;;;;;;9.32;3.30;;;;;;;;;;5042881;28;20028;-86
2021/12/10 09:58:08;;;;;;;8.48;3.30;;;;;;;;;;5033246;28;20477;-87
2021/12/10 10:00:50;;;;;;;6.95;2.72;;;;;;;;;;5028555;28;20032;-86
2021/12/10 10:03:19;;;;;;;10.73;3.22;;;;;;;;;;5022807;28;20029;-86
2021/12/10 10:05:46;;;;;;;7.25;3.00;;;;;;;;;;5057180;28;20071;-86
2021/12/10 10:10:29;;;;;;;10.25;3.40;;;;;;;;;;5162299;27;20382;-91
2021/12/10 10:12:59;;;;;;;6.07;3.08;;;;;;;;;;5128093;27;20096;-84
2021/12/10 10:15:28;;;;;;;11.57;3.28;;;;;;;;;;5121943;27;20084;-87
2021/12/10 10:18:00;;;;;;;9.93;3.10;;;;;;;;;;5125699;27;20533;-88
2021/12/10 10:20:28;;;;;;;6.10;2.80;;;;;;;;;;5144067;27;20102;-88
2021/12/10 10:22:53;;;;;;;8.95;3.45;;;;;;;;;;5120532;27;20025;-82
2021/12/10 10:25:22;;;;;;;9.45;3.50;;;;;;;;;;5132706;27;20027;-88
2021/12/10 10:27:47;;;;;;;7.03;3.05;;;;;;;;;;5146159;27;20097;-82
2021/12/10 10:30:24;;;;;;;8.38;3.00;;;;;;;;;;5129013;27;20031;-87
2021/12/10 10:32:50;;;;;;;8.80;3.35;;;;;;;;;;5149555;27;20018;-88
2021/12/10 10:35:23;;;;;;;10.63;3.45;;;;;;;;;;5127752;27;20392;-83
2021/12/10 10:37:49;;;;;;;8.13;3.47;;;;;;;;;;5129076;27;20386;-87
2021/12/10 10:40:26;;;;;;;6.57;2.90;;;;;;;;;;5140532;27;20529;-81
2021/12/10 10:42:55;;;;;;;9.40;3.28;;;;;;;;;;5127275;27;20482;-88
2021/12/10 10:45:27;;;;;;;9.90;3.20;;;;;;;;;;5131932;27;20496;-82
2021/12/10 10:47:53;;;;;;;5.63;3.30;;;;;;;;;;5118209;28;20201;-82
2021/12/10 10:50:24;;;;;;;11.80;3.30;;;;;;;;;;5129861;27;20026;-88
2021/12/10 10:52:56;;;;;;;9.43;3.20;;;;;;;;;;5129598;27;20045;-86
2021/12/10 10:55:35;;;;;;;7.22;2.90;;;;;;;;;;5115495;28;20038;-88
2021/12/10 10:58:12;;;;;;;7.10;3.08;;;;;;;;;;5128685;27;20031;-87
2021/12/10 11:00:51;;;;;;;6.13;3.17;;;;;;;;;;5138428;27;20031;-86
2021/12/10 11:03:21;;;;;;;6.15;3.13;;;;;;;;;;5140525;27;20028;-83
2021/12/10 11:05:57;;;;;;;8.32;3.42;;;;;;;;;;5130752;27;20466;-86
2021/12/10 11:08:38;;;;;;;8.63;3.25;;;;;;;;;;5125073;27;20047;-87
2021/12/10 11:11:08;;;;;;;10.23;3.00;;;;;;;;;;5130188;28;20474;-83
2021/12/10 11:13:34;;;;;;;8.68;3.30;;;;;;;;;;5119469;28;20032;-86
2021/12/10 11:16:07;;;;;;;8.27;2.83;;;;;;;;;;5103414;28;20020;-86
2021/12/10 11:18:44;;;;;;;6.60;3.28;;;;;;;;;;5114351;28;20071;-90
2021/12/10 11:21:10;;;;;;;6.55;3.42;;;;;;;;;;5093371;28;20027;-83
2021/12/10 11:23:39;;;;;;;7.60;2.95;;;;;;;;;;5091107;28;20020;-90
2021/12/10 11:26:07;;;;;;;9.23;3.15;;;;;;;;;;5085681;28;20498;-85
2021/12/10 11:28:36;;;;;;;7.90;3.13;;;;;;;;;;5100048;28;20051;-83
2021/12/10 11:31:15;;;;;;;7.45;3.33;;;;;;;;;;5095329;28;20115;-89
2021/12/10 11:33:49;;;;;;;9.50;2.80;;;;;;;;;;5100870;28;20027;-87
2021/12/10 11:36:23;;;;;;;9.25;3.30;;;;;;;;;;5092076;28;20387;-83
2021/12/10 11:38:54;;;;;;;7.13;3.10;;;;;;;;;;5109679;28;20032;-85
2021/12/10 11:41:23;;;;;;;6.50;2.90;;;;;;;;;;5089325;28;20032;-89
2021/12/10 11:44:37;;;;;;;7.55;2.88;;;;;;;;;;5100165;28;20027;-91
2021/12/10 11:47:25;;;;;;;6.60;2.80;;;;;;;;;;5095992;28;20074;-85
2021/12/10 11:49:50;;;;;;;11.00;3.33;;;;;;;;;;5093898;28;20497;-90
2021/12/10 11:52:25;;;;;;;6.10;2.50;;;;;;;;;;5095862;28;20108;-85
2021/12/10 11:54:59;;;;;;;9.95;2.70;;;;;;;;;;5093901;28;20034;-91
2021/12/10 11:57:24;;;;;;;6.35;2.55;;;;;;;;;;5096697;28;20058;-90
2021/12/10 11:59:57;;;;;;;7.70;3.03;;;;;;;;;;5105592;28;20052;-86
2021/12/10 12:02:29;;;;;;;8.18;2.88;;;;;;;;;;5093344;28;20042;-85
2021/12/10 12:05:06;;;;;;;8.65;3.03;;;;;;;;;;5100908;28;20058;-87
2021/12/10 12:07:40;;;;;;;6.55;2.83;;;;;;;;;;5100688;28;20027;-86
2021/12/10 12:10:28;;;;;;;7.22;2.90;;;;;;;;;;5095558;28;20509;-85
2021/12/10 12:12:55;;;;;;;8.15;2.92;;;;;;;;;;5093887;28;20073;-85
2021/12/10 12:15:38;;;;;;;8.32;3.00;;;;;;;;;;5095894;28;20030;-85
2021/12/10 12:18:06;;;;;;;8.95;2.80;;;;;;;;;;5112076;28;20028;-88
2021/12/10 12:20:34;;;;;;;8.27;3.03;;;;;;;;;;5097106;28;20888;-85
2021/12/10 12:25:53;;;;;;;7.60;2.85;;;;;;;;;;5111422;28;20085;-85
2021/12/10 12:28:24;;;;;;;6.15;2.78;;;;;;;;;;5095456;28;20032;-85
2021/12/10 12:30:53;;;;;;;6.13;2.53;;;;;;;;;;5093724;28;20380;-87
2021/12/10 12:33:18;;;;;;;8.77;3.17;;;;;;;;;;5086805;28;20024;-85
2021/12/10 12:35:44;;;;;;;8.25;2.95;;;;;;;;;;5081160;28;20020;-85
2021/12/10 12:38:23;;;;;;;6.18;2.75;;;;;;;;;;5091710;28;20127;-85
2021/12/10 12:41:08;;;;;;;10.38;3.28;;;;;;;;;;5094728;28;20513;-86
2021/12/10 12:43:35;;;;;;;6.68;3.15;;;;;;;;;;5092543;28;20031;-86
2021/12/10 12:46:06;;;;;;;6.82;3.20;;;;;;;;;;5095519;28;20027;-88
2021/12/10 12:48:32;;;;;;;10.02;3.67;;;;;;;;;;5102925;28;20022;-88
2021/12/10 12:51:02;;;;;;;8.82;3.10;;;;;;;;;;5092308;28;20031;-85
2021/12/10 12:53:30;;;;;;;10.32;3.70;;;;;;;;;;5093973;28;20020;-85
2021/12/10 12:56:05;;;;;;;8.88;3.17;;;;;;;;;;5096832;28;20479;-86
2021/12/10 12:58:37;;;;;;;7.70;3.20;;;;;;;;;;5093283;28;20039;-90
2021/12/10 13:01:24;;;;;;;6.20;3.03;;;;;;;;;;5105649;28;20035;-88
2021/12/10 13:04:08;;;;;;;6.78;3.38;;;;;;;;;;5096045;28;20028;-86
2021/12/10 13:06:44;;;;;;;5.82;3.20;;;;;;;;;;5089923;28;20038;-87
2021/12/10 13:09:13;;;;;;;8.70;3.15;;;;;;;;;;5097322;28;20040;-85
2021/12/10 13:11:57;;;;;;;9.43;3.03;;;;;;;;;;5087491;28;20115;-90
2021/12/10 13:14:32;;;;;;;6.22;3.13;;;;;;;;;;5090497;28;20024;-86
2021/12/10 13:17:08;;;;;;;11.70;3.92;;;;;;;;;;5088399;28;20506;-88
2021/12/10 13:19:33;;;;;;;8.32;3.42;;;;;;;;;;5088744;28;20024;-90
2021/12/10 13:22:11;;;;;;;9.40;3.58;;;;;;;;;;5092782;28;20023;-86
2021/12/10 13:24:40;;;;;;;8.10;3.13;;;;;;;;;;5088745;28;20028;-87
2021/12/10 13:27:06;;;;;;;10.40;3.45;;;;;;;;;;5089616;28;20020;-89
2021/12/10 13:29:32;;;;;;;9.20;3.33;;;;;;;;;;5086341;28;20039;-91
2021/12/10 13:31:59;;;;;;;8.95;3.55;;;;;;;;;;5092145;28;20032;-88
2021/12/10 13:34:25;;;;;;;8.45;3.58;;;;;;;;;;5088931;28;20392;-87
2021/12/10 13:36:51;;;;;;;9.07;3.60;;;;;;;;;;5084593;28;20027;-86
2021/12/10 13:39:18;;;;;;;7.85;3.58;;;;;;;;;;5084796;28;20480;-88
2021/12/10 13:41:53;;;;;;;10.48;3.30;;;;;;;;;;5070555;28;20154;-88
2021/12/10 13:47:22;;;;;;;8.70;3.47;;;;;;;;;;5090689;28;20025;-89
2021/12/10 13:49:52;;;;;;;6.68;3.20;;;;;;;;;;5094911;28;20438;-85
2021/12/10 13:52:52;;;;;;;8.85;4.07;;;;;;;;;;5086505;28;20123;-89
2021/12/10 13:55:23;;;;;;;10.27;3.70;;;;;;;;;;5094186;28;20035;-85
2021/12/10 13:58:27;;;;;;;7.95;3.90;;;;;;;;;;5092182;28;20491;-90
2021/12/10 14:01:07;;;;;;;10.23;4.20;;;;;;;;;;5091935;28;20034;-84
2021/12/10 14:03:56;;;;;;;7.30;3.47;;;;;;;;;;5093684;28;20059;-85
2021/12/10 14:06:57;;;;;;;6.28;3.40;;;;;;;;;;5093273;28;20028;-85
2021/12/10 14:09:44;;;;;;;7.82;3.58;;;;;;;;;;5091899;28;20048;-85
2021/12/10 14:12:36;;;;;;;8.32;3.88;;;;;;;;;;5096233;28;20035;-86
2021/12/10 14:15:19;;;;;;;10.32;4.30;;;;;;;;;;5083011;28;20028;-89
2021/12/10 14:18:03;;;;;;;7.22;4.00;;;;;;;;;;5092029;28;20031;-86
2021/12/10 14:20:40;;;;;;;11.63;4.38;;;;;;;;;;5091289;28;20127;-86
2021/12/10 14:23:21;;;;;;;8.38;4.40;;;;;;;;;;5086775;28;20480;-85
2021/12/10 14:26:00;;;;;;;7.57;3.90;;;;;;;;;;5088650;28;20334;-86
2021/12/10 14:29:03;;;;;;;10.80;4.55;;;;;;;;;;5071326;28;20159;-85
2021/12/10 14:31:36;;;;;;;10.35;4.63;;;;;;;;;;5048512;28;20036;-85
2021/12/10 14:34:06;;;;;;;;;;;;;;;;;;5066624;28;20498;-85
2021/12/10 14:36:31;;;;;;;7.93;4.38;;;;;;;;;;5059575;28;19912;-85
2021/12/10 14:39:03;;;;;;;12.40;5.18;;;;;;;;;;5056372;28;20123;-87
2021/12/10 14:41:46;;;;;;;8.85;4.93;;;;;;;;;;5049899;28;20035;-87
2021/12/10 14:44:25;;;;;;;11.07;5.07;;;;;;;;;;5057650;28;20040;-85
2021/12/10 14:47:01;;;;;;;9.50;4.40;;;;;;;;;;5071042;28;20123;-89
2021/12/10 14:49:41;;;;;;;8.70;4.72;;;;;;;;;;5048523;28;20037;-85
2021/12/10 14:52:11;;;;;;;8.43;4.50;;;;;;;;;;5070955;28;20032;-90
2021/12/10 14:55:20;;;;;;;7.30;4.30;;;;;;;;;;5065259;28;20044;-88
2021/12/10 14:58:44;;;;;;;9.63;4.45;;;;;;;;;;5062386;28;20012;-90
2021/12/10 15:01:19;;;;;;;10.30;4.63;;;;;;;;;;5100101;28;20029;-86
2021/12/10 15:03:55;;;;;;;7.75;3.90;;;;;;;;;;5100013;28;20020;-91
2021/12/10 15:06:29;;;;;;;8.57;4.43;;;;;;;;;;5093914;28;20043;-85
2021/12/10 15:09:08;;;;;;;6.38;3.83;;;;;;;;;;5097157;28;20044;-87
2021/12/10 15:12:09;;;;;;;9.93;5.00;;;;;;;;;;5099001;28;20111;-84
2021/12/10 15:14:40;;;;;;;6.65;3.85;;;;;;;;;;5100381;28;20118;-85
2021/12/10 15:17:42;;;;;;;7.78;4.43;;;;;;;;;;5095196;28;20024;-85
2021/12/10 15:20:29;;;;;;;8.15;3.95;;;;;;;;;;5090830;28;20024;-85
2021/12/10 15:22:56;;;;;;;6.53;3.67;;;;;;;;;;5107579;28;20131;-91